Time,TemperatureF,DewpointF,PressureIn,WindDirection,WindDirectionDegrees,WindSpeedMPH,WindSpeedGustMPH,Humidity,HourlyPrecipIn,Conditions,Clouds,dailyrainin,SolarRadiationWatts/m^2,SoftwareType,DateUTC
2013-02-10 00:01:00,46.9,29.2,30.08,ESE,122,1.6,2.3,50,0.00,CLR,,0.00,0.0,WeatherDisplay:10.37,2013-02-10 08:01:00,
2013-02-10 00:06:00,47.1,29.4,30.08,ESE,122,2.0,3.5,50,0.00,CLR,,0.00,0.0,WeatherDisplay:10.37,2013-02-10 08:06:00,
2013-02-10 00:11:00,47.2,29.5,30.08,ESE,121,0.8,2.3,50,0.00,CLR,,0.00,0.0,WeatherDisplay:10.37,2013-02-10 08:11:00,
2013-02-10 00:16:00,47.1,28.9,30.08,ESE,122,0.0,0.0,49,0.00,CLR,,0.00,0.0,WeatherDisplay:10.37,2013-02-10 08:16:00,
2013-02-10 00:21:00,47.0,28.8,30.08,ESE,122,0.0,0.0,49,0.00,CLR,,0.00,0.0,WeatherDisplay:10.37,2013-02-10 08:21:00,
2013-02-10 00:26:00,47.0,28.8,30.08,ESE,122,1.4,2.3,49,0.00,CLR,,0.00,0.0,WeatherDisplay:10.37,2013-02-10 08:26:00,
2013-02-10 00:31:00,46.8,28.6,30.08,ESE,122,0.8,1.1,49,0.00,CLR,,0.00,0.0,WeatherDisplay:10.37,2013-02-10 08:31:00,
2013-02-10 00:36:00,46.6,28.4,30.08,ESE,122,0.0,0.0,49,0.00,CLR,,0.00,0.0,WeatherDisplay:10.37,2013-02-10 08:36:00,
2013-02-10 00:41:00,46.6,28.4,30.08,ESE,122,0.0,0.0,49,0.00,CLR,,0.00,0.0,WeatherDisplay:10.37,2013-02-10 08:41:00,
2013-02-10 00:46:00,46.5,28.3,30.08,ESE,122,0.0,0.0,49,0.00,CLR,,0.00,0.0,WeatherDisplay:10.37,2013-02-10 08:46:00,
2013-02-10 00:51:00,46.6,28.4,30.08,ESE,121,0.0,0.0,49,0.00,CLR,,0.00,0.0,WeatherDisplay:10.37,2013-02-10 08:51:00,
2013-02-10 00:56:00,46.8,28.1,30.08,ESE,122,1.2,2.3,48,0.00,CLR,,0.00,0.0,WeatherDisplay:10.37,2013-02-10 08:56:00,
2013-02-10 01:01:00,46.7,28.5,30.08,ESE,122,1.8,2.3,49,0.00,CLR,,0.00,0.0,WeatherDisplay:10.37,2013-02-10 09:01:00,
2013-02-10 01:06:00,46.5,28.3,30.08,ESE,122,2.0,3.5,49,0.00,CLR,,0.00,0.0,WeatherDisplay:10.37,2013-02-10 09:06:00,
2013-02-10 01:11:00,46.5,28.3,30.08,ESE,122,2.2,3.5,49,0.00,CLR,,0.00,0.0,WeatherDisplay:10.37,2013-02-10 09:11:00,
2013-02-10 01:16:00,46.4,28.3,30.08,ESE,122,1.9,2.3,49,0.00,CLR,,0.00,0.0,WeatherDisplay:10.37,2013-02-10 09:16:00,
2013-02-10 01:21:00,46.4,27.8,30.08,ESE,122,1.9,2.3,48,0.00,CLR,,0.00,0.0,WeatherDisplay:10.37,2013-02-10 09:21:00,
2013-02-10 01:26:00,46.5,27.8,30.08,ESE,122,1.7,2.3,48,0.00,CLR,,0.00,0.0,WeatherDisplay:10.37,2013-02-10 09:26:00,
2013-02-10 01:31:00,46.6,27.9,30.08,ESE,122,1.1,2.3,48,0.00,CLR,,0.00,0.0,WeatherDisplay:10.37,2013-02-10 09:31:00,
2013-02-10 01:36:00,46.6,27.9,30.08,ESE,122,2.1,3.5,48,0.00,CLR,,0.00,0.0,WeatherDisplay:10.37,2013-02-10 09:36:00,
2013-02-10 01:41:00,46.6,27.9,30.08,ESE,122,2.3,3.5,48,0.00,CLR,,0.00,0.0,WeatherDisplay:10.37,2013-02-10 09:41:00,
2013-02-10 01:46:00,46.6,27.9,30.08,ESE,121,2.9,4.0,48,0.00,CLR,,0.00,0.0,WeatherDisplay:10.37,2013-02-10 09:46:00,
2013-02-10 01:51:00,46.7,28.0,30.08,ESE,118,4.7,5.0,48,0.00,CLR,,0.00,0.0,WeatherDisplay:10.37,2013-02-10 09:51:00,
2013-02-10 01:56:00,46.8,28.1,30.08,SE,124,3.7,4.0,48,0.00,CLR,,0.00,0.0,WeatherDisplay:10.37,2013-02-10 09:56:00,
2013-02-10 02:01:00,46.7,28.0,30.07,SE,137,4.2,4.6,48,0.00,CLR,,0.00,0.0,WeatherDisplay:10.37,2013-02-10 10:01:00,
2013-02-10 02:06:00,46.4,27.8,30.08,SE,139,4.4,4.6,48,0.00,CLR,,0.00,0.0,WeatherDisplay:10.37,2013-02-10 10:06:00,
2013-02-10 02:11:00,46.2,27.6,30.08,SE,136,4.0,4.6,48,0.00,CLR,,0.00,0.0,WeatherDisplay:10.37,2013-02-10 10:11:00,
2013-02-10 02:16:00,46.2,27.1,30.08,SE,124,3.7,4.0,47,0.00,CLR,,0.00,0.0,WeatherDisplay:10.37,2013-02-10 10:16:00,
2013-02-10 02:21:00,46.4,26.7,30.08,SE,125,3.2,3.5,46,0.00,CLR,,0.00,0.0,WeatherDisplay:10.37,2013-02-10 10:21:00,
2013-02-10 02:26:00,46.6,26.4,30.08,SE,125,1.9,3.5,45,0.00,CLR,,0.00,0.0,WeatherDisplay:10.37,2013-02-10 10:26:00,
2013-02-10 02:31:00,46.8,27.1,30.08,SE,126,0.1,1.1,46,0.00,CLR,,0.00,0.0,WeatherDisplay:10.37,2013-02-10 10:31:00,
2013-02-10 02:36:00,46.9,26.6,30.08,SE,126,1.3,2.3,45,0.00,CLR,,0.00,0.0,WeatherDisplay:10.37,2013-02-10 10:36:00,
2013-02-10 02:41:00,46.8,27.1,30.08,SSE,147,1.9,2.3,46,0.00,CLR,,0.00,0.0,WeatherDisplay:10.37,2013-02-10 10:41:00,
2013-02-10 02:46:00,46.5,26.8,30.08,SW,220,2.5,3.5,46,0.00,CLR,,0.00,0.0,WeatherDisplay:10.37,2013-02-10 10:46:00,
2013-02-10 02:51:00,46.1,27.0,30.08,WSW,244,2.8,4.6,47,0.00,CLR,,0.00,0.0,WeatherDisplay:10.37,2013-02-10 10:51:00,
2013-02-10 02:56:00,45.8,27.2,30.08,WNW,283,3.1,3.5,48,0.00,CLR,,0.00,0.0,WeatherDisplay:10.37,2013-02-10 10:56:00,
2013-02-10 03:01:00,45.5,27.4,30.08,WNW,282,2.8,3.5,49,0.00,CLR,,0.00,0.0,WeatherDisplay:10.37,2013-02-10 11:01:00,
2013-02-10 03:06:00,45.2,27.2,30.07,WNW,282,1.1,2.3,49,0.00,CLR,,0.00,0.0,WeatherDisplay:10.37,2013-02-10 11:06:00,
2013-02-10 03:11:00,45.0,27.0,30.07,West,274,1.6,2.3,49,0.00,CLR,,0.00,0.0,WeatherDisplay:10.37,2013-02-10 11:11:00,
2013-02-10 03:16:00,44.6,26.6,30.07,WSW,254,0.9,2.3,49,0.00,CLR,,0.00,0.0,WeatherDisplay:10.37,2013-02-10 11:16:00,
2013-02-10 03:21:00,44.3,25.8,30.07,WSW,254,1.4,2.3,48,0.00,CLR,,0.00,0.0,WeatherDisplay:10.37,2013-02-10 11:21:00,
2013-02-10 03:26:00,44.1,26.6,30.07,NW,309,2.4,3.5,50,0.00,CLR,,0.00,0.0,WeatherDisplay:10.37,2013-02-10 11:26:00,
2013-02-10 03:31:00,43.7,26.7,30.07,NW,309,2.9,4.0,51,0.00,CLR,,0.00,0.0,WeatherDisplay:10.37,2013-02-10 11:31:00,
2013-02-10 03:36:00,43.4,26.5,30.07,NW,308,2.0,3.5,51,0.00,CLR,,0.00,0.0,WeatherDisplay:10.37,2013-02-10 11:36:00,
2013-02-10 03:41:00,43.2,25.8,30.07,NW,309,0.7,2.3,50,0.00,CLR,,0.00,0.0,WeatherDisplay:10.37,2013-02-10 11:41:00,
2013-02-10 03:46:00,43.0,25.6,30.07,NW,309,1.3,2.3,50,0.00,CLR,,0.00,0.0,WeatherDisplay:10.37,2013-02-10 11:46:00,
2013-02-10 03:51:00,42.8,25.4,30.06,WSW,245,2.8,4.6,50,0.00,CLR,,0.00,0.0,WeatherDisplay:10.37,2013-02-10 11:51:00,
2013-02-10 03:56:00,42.9,26.0,30.06,WSW,242,1.7,3.5,51,0.00,CLR,,0.00,0.0,WeatherDisplay:10.37,2013-02-10 11:56:00,
2013-02-10 04:01:00,43.0,25.6,30.06,WSW,251,2.8,3.5,50,0.00,CLR,,0.00,0.0,WeatherDisplay:10.37,2013-02-10 12:01:00,
2013-02-10 04:06:00,43.2,26.7,30.06,WSW,257,4.8,5.8,52,0.00,CLR,,0.00,0.0,WeatherDisplay:10.37,2013-02-10 12:06:00,
2013-02-10 04:11:00,43.3,26.4,30.06,WSW,254,5.0,5.8,51,0.00,CLR,,0.00,0.0,WeatherDisplay:10.37,2013-02-10 12:11:00,
2013-02-10 04:16:00,43.3,26.4,30.06,West,259,5.2,6.0,51,0.00,CLR,,0.00,0.0,WeatherDisplay:10.37,2013-02-10 12:16:00,
2013-02-10 04:21:00,43.4,26.5,30.07,West,271,4.8,5.8,51,0.00,CLR,,0.00,0.0,WeatherDisplay:10.37,2013-02-10 12:21:00,
2013-02-10 04:26:00,43.5,27.0,30.06,West,271,3.1,4.0,52,0.00,CLR,,0.00,0.0,WeatherDisplay:10.37,2013-02-10 12:26:00,
2013-02-10 04:31:00,43.4,26.9,30.07,West,280,3.5,3.5,52,0.00,CLR,,0.00,0.0,WeatherDisplay:10.37,2013-02-10 12:31:00,
2013-02-10 04:36:00,43.4,26.9,30.07,West,281,2.5,3.5,52,0.00,CLR,,0.00,0.0,WeatherDisplay:10.37,2013-02-10 12:36:00,
2013-02-10 04:41:00,43.1,27.1,30.07,NW,314,2.8,4.0,53,0.00,CLR,,0.00,0.0,WeatherDisplay:10.37,2013-02-10 12:41:00,
2013-02-10 04:46:00,42.8,27.3,30.07,NW,314,3.5,4.0,54,0.00,CLR,,0.00,0.0,WeatherDisplay:10.37,2013-02-10 12:46:00,
2013-02-10 04:51:00,42.4,26.9,30.07,NW,314,2.2,3.5,54,0.00,CLR,,0.00,0.0,WeatherDisplay:10.37,2013-02-10 12:51:00,
2013-02-10 04:56:00,42.2,26.7,30.07,West,274,3.4,4.6,54,0.00,CLR,,0.00,0.0,WeatherDisplay:10.37,2013-02-10 12:56:00,
2013-02-10 05:01:00,42.0,27.0,30.07,West,275,2.9,3.5,55,0.00,CLR,,0.00,0.0,WeatherDisplay:10.37,2013-02-10 13:01:00,
2013-02-10 05:06:00,41.9,27.3,30.07,West,270,2.8,3.5,56,0.00,CLR,,0.00,0.0,WeatherDisplay:10.37,2013-02-10 13:06:00,
2013-02-10 05:11:00,41.8,27.7,30.07,West,259,5.2,6.0,57,0.00,CLR,,0.00,0.0,WeatherDisplay:10.37,2013-02-10 13:11:00,
2013-02-10 05:16:00,41.7,27.1,30.07,WSW,257,3.6,5.0,56,0.00,CLR,,0.00,0.0,WeatherDisplay:10.37,2013-02-10 13:16:00,
2013-02-10 05:21:00,41.8,27.2,30.08,West,266,4.8,5.0,56,0.00,CLR,,0.00,0.0,WeatherDisplay:10.37,2013-02-10 13:21:00,
2013-02-10 05:26:00,41.9,26.9,30.07,West,264,4.2,5.0,55,0.00,CLR,,0.00,0.0,WeatherDisplay:10.37,2013-02-10 13:26:00,
2013-02-10 05:31:00,42.0,27.0,30.07,West,260,3.9,5.0,55,0.00,CLR,,0.00,0.0,WeatherDisplay:10.37,2013-02-10 13:31:00,
2013-02-10 05:36:00,41.9,26.9,30.07,West,259,2.3,4.6,55,0.00,CLR,,0.00,0.0,WeatherDisplay:10.37,2013-02-10 13:36:00,
2013-02-10 05:41:00,41.8,27.2,30.07,WSW,258,3.3,4.6,56,0.00,CLR,,0.00,0.0,WeatherDisplay:10.37,2013-02-10 13:41:00,
2013-02-10 05:46:00,41.8,27.2,30.07,WNW,284,3.9,4.6,56,0.00,CLR,,0.00,0.0,WeatherDisplay:10.37,2013-02-10 13:46:00,
2013-02-10 05:51:00,41.8,27.2,30.07,West,276,3.8,4.0,56,0.00,CLR,,0.00,0.0,WeatherDisplay:10.37,2013-02-10 13:51:00,
2013-02-10 05:56:00,41.9,26.9,30.08,West,273,3.7,3.7,55,0.00,CLR,,0.00,0.0,WeatherDisplay:10.37,2013-02-10 13:56:00,
2013-02-10 06:01:00,42.0,27.9,30.07,West,273,3.4,4.0,57,0.00,CLR,,0.00,0.0,WeatherDisplay:10.37,2013-02-10 14:01:00,
2013-02-10 06:06:00,42.1,27.9,30.07,West,274,4.4,4.6,57,0.00,CLR,,0.00,0.0,WeatherDisplay:10.37,2013-02-10 14:06:00,
2013-02-10 06:11:00,42.2,27.6,30.07,West,268,3.6,4.0,56,0.00,CLR,,0.00,0.0,WeatherDisplay:10.37,2013-02-10 14:11:00,
2013-02-10 06:16:00,42.3,28.1,30.07,West,265,3.2,3.5,57,0.00,CLR,,0.00,0.0,WeatherDisplay:10.37,2013-02-10 14:16:00,
2013-02-10 06:21:00,42.2,28.5,30.07,West,264,2.8,3.5,58,0.00,CLR,,0.00,0.0,WeatherDisplay:10.37,2013-02-10 14:21:00,
2013-02-10 06:26:00,42.1,28.4,30.08,West,264,2.8,3.5,58,0.00,CLR,,0.00,0.0,WeatherDisplay:10.37,2013-02-10 14:26:00,
2013-02-10 06:31:00,42.1,27.9,30.08,West,264,2.7,3.5,57,0.00,CLR,,0.00,0.0,WeatherDisplay:10.37,2013-02-10 14:31:00,
2013-02-10 06:36:00,42.1,27.9,30.08,West,264,2.2,3.5,57,0.00,CLR,,0.00,0.0,WeatherDisplay:10.37,2013-02-10 14:36:00,
2013-02-10 06:41:00,42.0,28.3,30.08,West,268,2.1,3.5,58,0.00,CLR,,0.00,0.0,WeatherDisplay:10.37,2013-02-10 14:41:00,
2013-02-10 06:46:00,41.9,27.8,30.08,West,268,1.5,3.5,57,0.00,CLR,,0.00,0.0,WeatherDisplay:10.37,2013-02-10 14:46:00,
2013-02-10 06:51:00,41.8,27.7,30.08,West,268,1.6,2.3,57,0.00,CLR,,0.00,0.0,WeatherDisplay:10.37,2013-02-10 14:51:00,
2013-02-10 06:56:00,41.7,28.0,30.08,West,268,1.3,2.3,58,0.00,CLR,,0.00,0.0,WeatherDisplay:10.37,2013-02-10 14:56:00,
2013-02-10 07:01:00,41.8,28.1,30.09,West,267,0.8,2.0,58,0.00,CLR,,0.00,0.0,WeatherDisplay:10.37,2013-02-10 15:01:00,
2013-02-10 07:06:00,41.8,28.9,30.08,West,267,1.6,2.3,60,0.00,CLR,,0.00,5.0,WeatherDisplay:10.37,2013-02-10 15:06:00,
2013-02-10 07:11:00,41.6,28.7,30.09,West,268,1.3,2.3,60,0.00,CLR,,0.00,9.0,WeatherDisplay:10.37,2013-02-10 15:11:00,
2013-02-10 07:16:00,41.4,28.9,30.09,West,268,2.1,3.5,61,0.00,CLR,,0.00,11.0,WeatherDisplay:10.37,2013-02-10 15:16:00,
2013-02-10 07:21:00,41.3,29.3,30.09,West,268,2.1,3.5,62,0.00,CLR,,0.00,14.0,WeatherDisplay:10.37,2013-02-10 15:21:00,
2013-02-10 07:26:00,41.1,29.5,30.09,West,268,2.9,3.5,63,0.00,CLR,,0.00,18.0,WeatherDisplay:10.37,2013-02-10 15:26:00,
2013-02-10 07:31:00,40.9,29.7,30.09,West,267,3.1,3.5,64,0.00,CLR,,0.00,39.0,WeatherDisplay:10.37,2013-02-10 15:31:00,
2013-02-10 07:36:00,41.0,29.7,30.09,West,266,2.7,4.0,64,0.00,CLR,,0.00,53.0,WeatherDisplay:10.37,2013-02-10 15:36:00,
2013-02-10 07:41:00,41.3,30.4,30.09,West,266,3.2,3.5,65,0.00,CLR,,0.00,67.0,WeatherDisplay:10.37,2013-02-10 15:41:00,
2013-02-10 07:46:00,41.7,30.0,30.09,West,262,2.9,4.6,63,0.00,CLR,,0.00,84.0,WeatherDisplay:10.37,2013-02-10 15:46:00,
2013-02-10 07:51:00,42.2,29.7,30.09,West,262,1.9,3.5,61,0.00,CLR,,0.00,102.0,WeatherDisplay:10.37,2013-02-10 15:51:00,
2013-02-10 07:56:00,42.8,29.9,30.09,West,262,2.8,4.6,60,0.00,CLR,,0.00,120.0,WeatherDisplay:10.37,2013-02-10 15:56:00,
2013-02-10 08:01:00,43.3,29.1,30.10,West,265,3.3,3.5,57,0.00,CLR,,0.00,141.0,WeatherDisplay:10.37,2013-02-10 16:01:00,
2013-02-10 08:06:00,43.8,29.1,30.09,West,266,1.1,2.3,56,0.00,CLR,,0.00,160.0,WeatherDisplay:10.37,2013-02-10 16:06:00,
2013-02-10 08:11:00,44.4,28.8,30.10,West,266,1.9,3.5,54,0.00,CLR,,0.00,176.0,WeatherDisplay:10.37,2013-02-10 16:11:00,
2013-02-10 08:16:00,45.4,30.2,30.10,NW,306,2.2,3.5,55,0.00,CLR,,0.00,197.0,WeatherDisplay:10.37,2013-02-10 16:16:00,
2013-02-10 08:21:00,46.7,31.8,30.10,NW,306,1.9,3.5,56,0.00,CLR,,0.00,214.0,WeatherDisplay:10.37,2013-02-10 16:21:00,
2013-02-10 08:26:00,47.9,32.0,30.10,NW,306,1.0,2.3,54,0.00,CLR,,0.00,234.0,WeatherDisplay:10.37,2013-02-10 16:26:00,
2013-02-10 08:31:00,48.9,33.0,30.10,NW,307,1.9,3.5,54,0.00,CLR,,0.00,251.0,WeatherDisplay:10.37,2013-02-10 16:31:00,
2013-02-10 08:36:00,49.4,32.0,30.10,NW,306,1.6,3.5,51,0.00,CLR,,0.00,269.0,WeatherDisplay:10.37,2013-02-10 16:36:00,
2013-02-10 08:41:00,49.5,31.6,30.10,NW,306,1.0,2.3,50,0.00,CLR,,0.00,285.0,WeatherDisplay:10.37,2013-02-10 16:41:00,
2013-02-10 08:46:00,49.6,31.2,30.11,NW,306,1.7,2.3,49,0.00,CLR,,0.00,299.0,WeatherDisplay:10.37,2013-02-10 16:46:00,
2013-02-10 08:51:00,49.7,31.3,30.11,NW,307,1.7,2.3,49,0.00,CLR,,0.00,316.0,WeatherDisplay:10.37,2013-02-10 16:51:00,
2013-02-10 08:56:00,50.4,32.9,30.11,NW,307,0.4,2.3,51,0.00,CLR,,0.00,323.0,WeatherDisplay:10.37,2013-02-10 16:56:00,
2013-02-10 09:01:00,50.9,32.9,30.11,NW,306,2.0,3.5,50,0.00,CLR,,0.00,313.0,WeatherDisplay:10.37,2013-02-10 17:01:00,
2013-02-10 09:06:00,51.2,32.7,30.11,NW,306,2.7,3.5,49,0.00,CLR,,0.00,281.0,WeatherDisplay:10.37,2013-02-10 17:06:00,
2013-02-10 09:11:00,51.2,32.7,30.11,NW,307,2.9,3.5,49,0.00,CLR,,0.00,292.0,WeatherDisplay:10.37,2013-02-10 17:11:00,
2013-02-10 09:16:00,51.4,32.3,30.11,NW,307,2.1,3.5,48,0.00,CLR,,0.00,371.0,WeatherDisplay:10.37,2013-02-10 17:16:00,
2013-02-10 09:21:00,51.3,32.8,30.10,West,270,2.4,3.5,49,0.00,CLR,,0.00,362.0,WeatherDisplay:10.37,2013-02-10 17:21:00,
2013-02-10 09:26:00,51.3,31.2,30.10,West,267,2.5,3.5,46,0.00,CLR,,0.00,383.0,WeatherDisplay:10.37,2013-02-10 17:26:00,
2013-02-10 09:31:00,51.3,31.7,30.10,West,278,2.5,3.5,47,0.00,CLR,,0.00,415.0,WeatherDisplay:10.37,2013-02-10 17:31:00,
2013-02-10 09:36:00,51.5,31.9,30.10,West,278,2.0,3.5,47,0.00,CLR,,0.00,452.0,WeatherDisplay:10.37,2013-02-10 17:36:00,
2013-02-10 09:41:00,52.1,32.5,30.10,West,280,1.7,3.5,47,0.00,CLR,,0.00,462.0,WeatherDisplay:10.37,2013-02-10 17:41:00,
2013-02-10 09:46:00,53.3,35.1,30.10,NNW,341,3.0,3.5,50,0.00,CLR,,0.00,482.0,WeatherDisplay:10.37,2013-02-10 17:46:00,
2013-02-10 09:51:00,54.2,34.4,30.10,NNW,343,1.3,2.3,47,0.00,CLR,,0.00,468.0,WeatherDisplay:10.37,2013-02-10 17:51:00,
2013-02-10 09:56:00,54.4,34.0,30.10,NNW,341,1.6,3.5,46,0.00,CLR,,0.00,496.0,WeatherDisplay:10.37,2013-02-10 17:56:00,
2013-02-10 10:01:00,54.9,34.5,30.10,NNW,342,2.5,3.5,46,0.00,CLR,,0.00,485.0,WeatherDisplay:10.37,2013-02-10 18:01:00,
2013-02-10 10:06:00,55.1,33.6,30.10,NNW,342,1.5,2.3,44,0.00,CLR,,0.00,526.0,WeatherDisplay:10.37,2013-02-10 18:06:00,
2013-02-10 10:11:00,55.5,33.3,30.10,NNW,341,1.5,3.5,43,0.00,CLR,,0.00,529.0,WeatherDisplay:10.37,2013-02-10 18:11:00,
2013-02-10 10:16:00,56.2,32.8,30.10,North,352,1.4,2.3,41,0.00,CLR,,0.00,538.0,WeatherDisplay:10.37,2013-02-10 18:16:00,
2013-02-10 10:21:00,56.6,31.9,30.10,NNW,341,1.8,3.5,39,0.00,CLR,,0.00,557.0,WeatherDisplay:10.37,2013-02-10 18:21:00,
2013-02-10 10:26:00,57.1,31.7,30.10,NNW,341,1.0,2.3,38,0.00,CLR,,0.00,570.0,WeatherDisplay:10.37,2013-02-10 18:26:00,
2013-02-10 10:31:00,57.5,32.1,30.10,NNW,341,0.8,2.3,38,0.00,CLR,,0.00,575.0,WeatherDisplay:10.37,2013-02-10 18:31:00,
2013-02-10 10:36:00,57.8,31.0,30.10,NNE,12,2.2,3.5,36,0.00,CLR,,0.00,582.0,WeatherDisplay:10.37,2013-02-10 18:36:00,
2013-02-10 10:41:00,57.9,30.4,30.10,NW,316,3.2,3.5,35,0.00,CLR,,0.00,580.0,WeatherDisplay:10.37,2013-02-10 18:41:00,
2013-02-10 10:46:00,58.0,30.5,30.11,NW,326,2.7,3.5,35,0.00,CLR,,0.00,612.0,WeatherDisplay:10.37,2013-02-10 18:46:00,
2013-02-10 10:51:00,57.8,30.3,30.10,WNW,284,7.4,10.4,35,0.00,CLR,,0.00,571.0,WeatherDisplay:10.37,2013-02-10 18:51:00,
2013-02-10 10:56:00,57.4,31.3,30.10,NW,317,4.9,9.2,37,0.00,CLR,,0.00,575.0,WeatherDisplay:10.37,2013-02-10 18:56:00,
2013-02-10 11:01:00,57.5,32.1,30.10,NW,304,3.5,8.1,38,0.00,CLR,,0.00,566.0,WeatherDisplay:10.37,2013-02-10 19:01:00,
2013-02-10 11:06:00,57.8,31.7,30.10,WNW,297,4.1,6.9,37,0.00,CLR,,0.00,675.0,WeatherDisplay:10.37,2013-02-10 19:06:00,
2013-02-10 11:11:00,58.0,32.5,30.10,North,358,1.3,3.5,38,0.00,CLR,,0.00,666.0,WeatherDisplay:10.37,2013-02-10 19:11:00,
2013-02-10 11:16:00,58.2,32.7,30.10,NNW,331,5.3,8.1,38,0.00,CLR,,0.00,684.0,WeatherDisplay:10.37,2013-02-10 19:16:00,
2013-02-10 11:21:00,58.6,33.7,30.09,NW,307,1.3,3.5,39,0.00,CLR,,0.00,671.0,WeatherDisplay:10.37,2013-02-10 19:21:00,
2013-02-10 11:26:00,58.8,33.9,30.09,ENE,58,4.1,5.8,39,0.00,CLR,,0.00,657.0,WeatherDisplay:10.37,2013-02-10 19:26:00,
2013-02-10 11:31:00,58.7,34.4,30.09,NNE,20,2.6,6.0,40,0.00,CLR,,0.00,652.0,WeatherDisplay:10.37,2013-02-10 19:31:00,
2013-02-10 11:36:00,58.8,33.9,30.09,NW,318,3.0,4.6,39,0.00,CLR,,0.00,654.0,WeatherDisplay:10.37,2013-02-10 19:36:00,
2013-02-10 11:41:00,59.2,35.5,30.09,North,357,3.6,5.8,41,0.00,CLR,,0.00,652.0,WeatherDisplay:10.37,2013-02-10 19:41:00,
2013-02-10 11:46:00,59.7,34.0,30.09,NW,319,6.3,11.5,38,0.00,CLR,,0.00,649.0,WeatherDisplay:10.37,2013-02-10 19:46:00,
2013-02-10 11:51:00,59.8,34.1,30.09,NNW,348,2.5,4.6,38,0.00,CLR,,0.00,664.0,WeatherDisplay:10.37,2013-02-10 19:51:00,
2013-02-10 11:56:00,59.8,34.1,30.08,NNW,347,4.0,6.9,38,0.00,CLR,,0.00,671.0,WeatherDisplay:10.37,2013-02-10 19:56:00,
2013-02-10 12:01:00,59.9,34.2,30.08,NNW,341,2.4,4.6,38,0.00,CLR,,0.00,671.0,WeatherDisplay:10.37,2013-02-10 20:01:00,
2013-02-10 12:06:00,60.0,34.3,30.07,NNW,331,4.4,8.1,38,0.00,CLR,,0.00,671.0,WeatherDisplay:10.37,2013-02-10 20:06:00,
2013-02-10 12:11:00,60.3,33.9,30.07,NW,320,2.7,4.0,37,0.00,CLR,,0.00,668.0,WeatherDisplay:10.37,2013-02-10 20:11:00,
2013-02-10 12:16:00,60.3,33.9,30.08,NW,318,3.0,8.1,37,0.00,CLR,,0.00,671.0,WeatherDisplay:10.37,2013-02-10 20:16:00,
2013-02-10 12:21:00,60.4,34.0,30.07,North,10,2.6,6.9,37,0.00,CLR,,0.00,675.0,WeatherDisplay:10.37,2013-02-10 20:21:00,
2013-02-10 12:26:00,60.6,34.8,30.07,NW,319,6.6,9.2,38,0.00,CLR,,0.00,673.0,WeatherDisplay:10.37,2013-02-10 20:26:00,
2013-02-10 12:31:00,60.6,33.5,30.06,North,6,3.7,5.0,36,0.00,CLR,,0.00,668.0,WeatherDisplay:10.37,2013-02-10 20:31:00,
2013-02-10 12:36:00,60.6,33.5,30.06,NNE,28,3.0,3.5,36,0.00,CLR,,0.00,670.0,WeatherDisplay:10.37,2013-02-10 20:36:00,
2013-02-10 12:41:00,60.7,33.6,30.05,WNW,296,3.4,4.0,36,0.00,CLR,,0.00,666.0,WeatherDisplay:10.37,2013-02-10 20:41:00,
2013-02-10 12:46:00,60.8,34.3,30.05,NNW,331,6.3,8.1,37,0.00,CLR,,0.00,663.0,WeatherDisplay:10.37,2013-02-10 20:46:00,
2013-02-10 12:51:00,61.0,33.1,30.05,NW,326,2.6,4.6,35,0.00,CLR,,0.00,661.0,WeatherDisplay:10.37,2013-02-10 20:51:00,
2013-02-10 12:56:00,61.0,32.4,30.05,NE,37,2.8,4.6,34,0.00,CLR,,0.00,661.0,WeatherDisplay:10.37,2013-02-10 20:56:00,
2013-02-10 13:01:00,60.9,33.0,30.05,NNW,339,4.2,6.9,35,0.00,CLR,,0.00,657.0,WeatherDisplay:10.37,2013-02-10 21:01:00,
2013-02-10 13:06:00,60.8,33.7,30.05,WNW,287,4.5,8.1,36,0.00,CLR,,0.00,654.0,WeatherDisplay:10.37,2013-02-10 21:06:00,
2013-02-10 13:11:00,61.1,33.2,30.05,NNE,21,2.6,6.0,35,0.00,CLR,,0.00,650.0,WeatherDisplay:10.37,2013-02-10 21:11:00,
2013-02-10 13:16:00,61.0,32.4,30.05,NNE,26,2.0,2.3,34,0.00,CLR,,0.00,643.0,WeatherDisplay:10.37,2013-02-10 21:16:00,
2013-02-10 13:21:00,60.9,33.7,30.05,NW,316,2.7,3.5,36,0.00,CLR,,0.00,638.0,WeatherDisplay:10.37,2013-02-10 21:21:00,
2013-02-10 13:26:00,61.0,33.1,30.05,NNW,327,1.8,3.0,35,0.00,CLR,,0.00,635.0,WeatherDisplay:10.37,2013-02-10 21:26:00,
2013-02-10 13:31:00,61.0,33.1,30.04,WNW,294,4.7,5.8,35,0.00,CLR,,0.00,626.0,WeatherDisplay:10.37,2013-02-10 21:31:00,
2013-02-10 13:36:00,60.6,33.5,30.05,NNE,15,3.7,4.6,36,0.00,CLR,,0.00,617.0,WeatherDisplay:10.37,2013-02-10 21:36:00,
2013-02-10 13:41:00,60.7,33.6,30.04,North,359,1.3,3.5,36,0.00,CLR,,0.00,610.0,WeatherDisplay:10.37,2013-02-10 21:41:00,
2013-02-10 13:46:00,60.4,32.6,30.04,NNE,30,1.7,3.5,35,0.00,CLR,,0.00,603.0,WeatherDisplay:10.37,2013-02-10 21:46:00,
2013-02-10 13:51:00,60.0,33.6,30.04,ENE,57,3.1,5.8,37,0.00,CLR,,0.00,594.0,WeatherDisplay:10.37,2013-02-10 21:51:00,
2013-02-10 13:56:00,59.8,34.1,30.04,NE,35,4.1,4.6,38,0.00,CLR,,0.00,585.0,WeatherDisplay:10.37,2013-02-10 21:56:00,
2013-02-10 14:01:00,59.5,33.2,30.04,NE,48,2.9,6.9,37,0.00,CLR,,0.00,580.0,WeatherDisplay:10.37,2013-02-10 22:01:00,
2013-02-10 14:06:00,59.2,33.6,30.04,North,7,1.9,4.0,38,0.00,CLR,,0.00,570.0,WeatherDisplay:10.37,2013-02-10 22:06:00,
2013-02-10 14:11:00,59.3,34.3,30.04,North,2,3.7,4.6,39,0.00,CLR,,0.00,561.0,WeatherDisplay:10.37,2013-02-10 22:11:00,
2013-02-10 14:16:00,59.7,34.7,30.03,NNE,17,2.7,5.8,39,0.00,CLR,,0.00,552.0,WeatherDisplay:10.37,2013-02-10 22:16:00,
2013-02-10 14:21:00,60.1,34.4,30.03,NNE,28,0.7,3.5,38,0.00,CLR,,0.00,538.0,WeatherDisplay:10.37,2013-02-10 22:21:00,
2013-02-10 14:26:00,60.3,33.9,30.03,NNW,347,1.4,2.3,37,0.00,CLR,,0.00,531.0,WeatherDisplay:10.37,2013-02-10 22:26:00,
2013-02-10 14:31:00,60.5,34.1,30.02,NNW,348,1.1,2.3,37,0.00,CLR,,0.00,520.0,WeatherDisplay:10.37,2013-02-10 22:31:00,
2013-02-10 14:36:00,60.7,34.3,30.02,NW,324,2.5,3.5,37,0.00,CLR,,0.00,508.0,WeatherDisplay:10.37,2013-02-10 22:36:00,
2013-02-10 14:41:00,60.8,35.0,30.03,North,353,2.0,3.5,38,0.00,CLR,,0.00,497.0,WeatherDisplay:10.37,2013-02-10 22:41:00,
2013-02-10 14:46:00,61.1,35.3,30.02,NNW,328,3.3,4.0,38,0.00,CLR,,0.00,482.0,WeatherDisplay:10.37,2013-02-10 22:46:00,
2013-02-10 14:51:00,61.3,34.8,30.02,NNW,330,1.4,3.5,37,0.00,CLR,,0.00,471.0,WeatherDisplay:10.37,2013-02-10 22:51:00,
2013-02-10 14:56:00,61.3,34.1,30.02,NNE,28,2.7,4.0,36,0.00,CLR,,0.00,459.0,WeatherDisplay:10.37,2013-02-10 22:56:00,
2013-02-10 15:01:00,61.1,34.6,30.02,NNE,28,0.9,2.0,37,0.00,CLR,,0.00,448.0,WeatherDisplay:10.37,2013-02-10 23:01:00,
2013-02-10 15:06:00,61.1,35.3,30.02,WNW,289,4.2,4.6,38,0.00,CLR,,0.00,436.0,WeatherDisplay:10.37,2013-02-10 23:06:00,
2013-02-10 15:11:00,61.2,35.4,30.02,NW,307,1.6,3.5,38,0.00,CLR,,0.00,422.0,WeatherDisplay:10.37,2013-02-10 23:11:00,
2013-02-10 15:16:00,61.4,34.9,30.02,WNW,296,3.1,3.5,37,0.00,CLR,,0.00,410.0,WeatherDisplay:10.37,2013-02-10 23:16:00,
2013-02-10 15:21:00,61.6,35.1,30.02,NNE,30,0.7,3.5,37,0.00,CLR,,0.00,394.0,WeatherDisplay:10.37,2013-02-10 23:21:00,
2013-02-10 15:26:00,61.7,35.8,30.02,NW,318,0.7,2.3,38,0.00,CLR,,0.00,380.0,WeatherDisplay:10.37,2013-02-10 23:26:00,
2013-02-10 15:31:00,61.7,35.1,30.02,NW,317,1.0,2.3,37,0.00,CLR,,0.00,362.0,WeatherDisplay:10.37,2013-02-10 23:31:00,
2013-02-10 15:36:00,61.5,35.6,30.02,WNW,297,3.5,5.0,38,0.00,CLR,,0.00,352.0,WeatherDisplay:10.37,2013-02-10 23:36:00,
2013-02-10 15:41:00,61.6,35.7,30.02,WNW,282,3.8,4.6,38,0.00,CLR,,0.00,336.0,WeatherDisplay:10.37,2013-02-10 23:41:00,
2013-02-10 15:46:00,61.7,35.8,30.02,NW,305,2.6,4.6,38,0.00,CLR,,0.00,320.0,WeatherDisplay:10.37,2013-02-10 23:46:00,
2013-02-10 15:51:00,61.8,35.2,30.02,NW,312,1.7,3.5,37,0.00,CLR,,0.00,306.0,WeatherDisplay:10.37,2013-02-10 23:51:00,
2013-02-10 15:56:00,61.9,35.3,30.02,NW,317,4.3,8.1,37,0.00,CLR,,0.00,288.0,WeatherDisplay:10.37,2013-02-10 23:56:00,
2013-02-10 16:01:00,61.8,35.2,30.02,NW,308,1.4,3.0,37,0.00,CLR,,0.00,272.0,WeatherDisplay:10.37,2013-02-11 00:01:00,
2013-02-10 16:06:00,61.8,35.2,30.02,NW,323,5.1,8.1,37,0.00,CLR,,0.00,255.0,WeatherDisplay:10.37,2013-02-11 00:06:00,
2013-02-10 16:11:00,61.7,35.8,30.02,NW,318,1.3,3.5,38,0.00,CLR,,0.00,239.0,WeatherDisplay:10.37,2013-02-11 00:11:00,
2013-02-10 16:16:00,61.6,35.7,30.02,NW,322,3.2,4.6,38,0.00,CLR,,0.00,220.0,WeatherDisplay:10.37,2013-02-11 00:16:00,
2013-02-10 16:21:00,61.5,35.6,30.03,WNW,296,2.6,4.0,38,0.00,CLR,,0.00,199.0,WeatherDisplay:10.37,2013-02-11 00:21:00,
2013-02-10 16:26:00,61.2,35.4,30.02,NW,322,2.1,6.9,38,0.00,CLR,,0.00,178.0,WeatherDisplay:10.37,2013-02-11 00:26:00,
2013-02-10 16:31:00,60.7,34.9,30.02,NW,309,1.5,3.5,38,0.00,CLR,,0.00,158.0,WeatherDisplay:10.37,2013-02-11 00:31:00,
2013-02-10 16:36:00,60.2,35.1,30.02,North,7,1.4,3.5,39,0.00,CLR,,0.00,137.0,WeatherDisplay:10.37,2013-02-11 00:36:00,
2013-02-10 16:41:00,59.6,35.2,30.02,NNE,26,1.4,3.5,40,0.00,CLR,,0.00,120.0,WeatherDisplay:10.37,2013-02-11 00:41:00,
2013-02-10 16:46:00,59.2,35.5,30.02,NNE,21,0.8,2.3,41,0.00,CLR,,0.00,104.0,WeatherDisplay:10.37,2013-02-11 00:46:00,
2013-02-10 16:51:00,59.2,35.5,30.02,NNW,339,0.9,2.0,41,0.00,CLR,,0.00,86.0,WeatherDisplay:10.37,2013-02-11 00:51:00,
2013-02-10 16:56:00,59.1,35.4,30.02,NNW,328,2.1,3.5,41,0.00,CLR,,0.00,70.0,WeatherDisplay:10.37,2013-02-11 00:56:00,
2013-02-10 17:01:00,59.1,36.0,30.02,NW,320,3.3,5.8,42,0.00,CLR,,0.00,56.0,WeatherDisplay:10.37,2013-02-11 01:01:00,
2013-02-10 17:06:00,58.9,35.8,30.02,NNW,336,2.5,4.6,42,0.00,CLR,,0.00,44.0,WeatherDisplay:10.37,2013-02-11 01:06:00,
2013-02-10 17:11:00,58.6,36.2,30.02,NNW,330,0.8,2.0,43,0.00,CLR,,0.00,28.0,WeatherDisplay:10.37,2013-02-11 01:11:00,
2013-02-10 17:16:00,58.1,35.7,30.02,NNW,328,0.5,2.3,43,0.00,CLR,,0.00,18.0,WeatherDisplay:10.37,2013-02-11 01:16:00,
2013-02-10 17:21:00,57.6,35.8,30.02,NNW,329,0.4,1.1,44,0.00,CLR,,0.00,16.0,WeatherDisplay:10.37,2013-02-11 01:21:00,
2013-02-10 17:26:00,57.0,35.9,30.02,NNW,329,2.1,4.0,45,0.00,CLR,,0.00,14.0,WeatherDisplay:10.37,2013-02-11 01:26:00,
2013-02-10 17:31:00,56.3,35.8,30.02,NW,324,2.8,4.6,46,0.00,CLR,,0.00,11.0,WeatherDisplay:10.37,2013-02-11 01:31:00,
2013-02-10 17:36:00,55.7,35.8,30.02,NW,325,2.8,3.5,47,0.00,CLR,,0.00,9.0,WeatherDisplay:10.37,2013-02-11 01:36:00,
2013-02-10 17:41:00,55.1,35.7,30.02,NW,324,2.5,3.5,48,0.00,CLR,,0.00,7.0,WeatherDisplay:10.37,2013-02-11 01:41:00,
2013-02-10 17:46:00,54.5,35.7,30.02,NW,318,4.0,4.6,49,0.00,CLR,,0.00,0.0,WeatherDisplay:10.37,2013-02-11 01:46:00,
2013-02-10 17:51:00,53.9,35.7,30.02,NW,316,3.6,4.6,50,0.00,CLR,,0.00,0.0,WeatherDisplay:10.37,2013-02-11 01:51:00,
2013-02-10 17:56:00,53.4,35.2,30.02,NW,314,2.8,3.5,50,0.00,CLR,,0.00,0.0,WeatherDisplay:10.37,2013-02-11 01:56:00,
2013-02-10 18:01:00,53.0,35.3,30.02,NW,314,2.5,3.5,51,0.00,CLR,,0.00,0.0,WeatherDisplay:10.37,2013-02-11 02:01:00,
2013-02-10 18:06:00,52.6,35.5,30.02,NW,314,2.1,3.5,52,0.00,CLR,,0.00,0.0,WeatherDisplay:10.37,2013-02-11 02:06:00,
2013-02-10 18:11:00,52.3,35.7,30.02,NW,314,2.2,3.5,53,0.00,CLR,,0.00,0.0,WeatherDisplay:10.37,2013-02-11 02:11:00,
2013-02-10 18:16:00,51.9,35.3,30.02,NW,314,1.6,2.3,53,0.00,CLR,,0.00,0.0,WeatherDisplay:10.37,2013-02-11 02:16:00,
2013-02-10 18:21:00,51.6,35.0,30.03,NW,314,1.4,2.3,53,0.00,CLR,,0.00,0.0,WeatherDisplay:10.37,2013-02-11 02:21:00,
2013-02-10 18:26:00,51.3,35.2,30.03,NW,308,1.9,3.5,54,0.00,CLR,,0.00,0.0,WeatherDisplay:10.37,2013-02-11 02:26:00,
2013-02-10 18:31:00,51.0,35.4,30.03,WNW,297,2.5,3.5,55,0.00,CLR,,0.00,0.0,WeatherDisplay:10.37,2013-02-11 02:31:00,
2013-02-10 18:36:00,50.7,35.1,30.03,WSW,251,2.7,3.5,55,0.00,CLR,,0.00,0.0,WeatherDisplay:10.37,2013-02-11 02:36:00,
2013-02-10 18:41:00,50.4,35.3,30.03,WSW,244,2.4,3.5,56,0.00,CLR,,0.00,0.0,WeatherDisplay:10.37,2013-02-11 02:41:00,
2013-02-10 18:46:00,50.2,35.1,30.04,WSW,256,3.7,4.6,56,0.00,CLR,,0.00,0.0,WeatherDisplay:10.37,2013-02-11 02:46:00,
2013-02-10 18:51:00,50.1,35.0,30.04,West,259,2.3,4.6,56,0.00,CLR,,0.00,0.0,WeatherDisplay:10.37,2013-02-11 02:51:00,
2013-02-10 18:56:00,50.0,35.4,30.04,WSW,254,2.4,3.5,57,0.00,CLR,,0.00,0.0,WeatherDisplay:10.37,2013-02-11 02:56:00,
2013-02-10 19:01:00,49.9,35.3,30.04,WSW,251,3.3,5.0,57,0.00,CLR,,0.00,0.0,WeatherDisplay:10.37,2013-02-11 03:01:00,
2013-02-10 19:06:00,49.8,35.2,30.04,WSW,256,2.9,4.6,57,0.00,CLR,,0.00,0.0,WeatherDisplay:10.37,2013-02-11 03:06:00,
2013-02-10 19:11:00,49.8,35.2,30.04,West,261,2.2,4.6,57,0.00,CLR,,0.00,0.0,WeatherDisplay:10.37,2013-02-11 03:11:00,
2013-02-10 19:16:00,49.8,35.2,30.04,West,259,4.3,5.8,57,0.00,CLR,,0.00,0.0,WeatherDisplay:10.37,2013-02-11 03:16:00,
2013-02-10 19:21:00,49.9,35.3,30.04,WSW,247,4.5,5.0,57,0.00,CLR,,0.00,0.0,WeatherDisplay:10.37,2013-02-11 03:21:00,
2013-02-10 19:26:00,49.9,35.3,30.04,WSW,249,4.5,5.0,57,0.00,CLR,,0.00,0.0,WeatherDisplay:10.37,2013-02-11 03:26:00,
2013-02-10 19:31:00,49.9,35.3,30.04,WSW,248,2.6,4.6,57,0.00,CLR,,0.00,0.0,WeatherDisplay:10.37,2013-02-11 03:31:00,
2013-02-10 19:36:00,49.8,35.2,30.04,WSW,251,2.5,3.5,57,0.00,CLR,,0.00,0.0,WeatherDisplay:10.37,2013-02-11 03:36:00,
2013-02-10 19:41:00,49.7,35.1,30.04,WSW,250,1.7,3.5,57,0.00,CLR,,0.00,0.0,WeatherDisplay:10.37,2013-02-11 03:41:00,
2013-02-10 19:46:00,49.7,35.1,30.04,WSW,250,2.9,5.0,57,0.00,CLR,,0.00,0.0,WeatherDisplay:10.37,2013-02-11 03:46:00,
2013-02-10 19:51:00,49.6,35.0,30.04,WSW,257,1.8,3.5,57,0.00,CLR,,0.00,0.0,WeatherDisplay:10.37,2013-02-11 03:51:00,
2013-02-10 19:56:00,49.5,34.9,30.04,WSW,257,1.7,3.5,57,0.00,CLR,,0.00,0.0,WeatherDisplay:10.37,2013-02-11 03:56:00,
2013-02-10 20:01:00,49.5,35.3,30.05,West,261,3.6,5.8,58,0.00,CLR,,0.00,0.0,WeatherDisplay:10.37,2013-02-11 04:01:00,
2013-02-10 20:06:00,49.4,35.2,30.05,WSW,252,2.4,4.6,58,0.00,CLR,,0.00,0.0,WeatherDisplay:10.37,2013-02-11 04:06:00,
2013-02-10 20:11:00,49.4,35.2,30.04,WSW,246,2.6,3.5,58,0.00,CLR,,0.00,0.0,WeatherDisplay:10.37,2013-02-11 04:11:00,
2013-02-10 20:16:00,49.3,35.1,30.05,WSW,246,2.3,3.5,58,0.00,CLR,,0.00,0.0,WeatherDisplay:10.37,2013-02-11 04:16:00,
2013-02-10 20:21:00,49.2,35.0,30.05,WSW,245,3.3,4.6,58,0.00,CLR,,0.00,0.0,WeatherDisplay:10.37,2013-02-11 04:21:00,
2013-02-10 20:26:00,49.2,35.0,30.05,WSW,238,3.3,4.0,58,0.00,CLR,,0.00,0.0,WeatherDisplay:10.37,2013-02-11 04:26:00,
2013-02-10 20:31:00,49.1,34.9,30.05,SW,232,3.0,4.0,58,0.00,CLR,,0.00,0.0,WeatherDisplay:10.37,2013-02-11 04:31:00,
2013-02-10 20:36:00,49.1,34.9,30.05,SW,234,3.5,4.6,58,0.00,CLR,,0.00,0.0,WeatherDisplay:10.37,2013-02-11 04:36:00,
2013-02-10 20:41:00,49.1,34.9,30.05,SW,226,4.4,4.6,58,0.00,CLR,,0.00,0.0,WeatherDisplay:10.37,2013-02-11 04:41:00,
2013-02-10 20:46:00,49.1,34.9,30.05,SW,235,4.7,6.9,58,0.00,CLR,,0.00,0.0,WeatherDisplay:10.37,2013-02-11 04:46:00,
2013-02-10 20:51:00,49.1,34.9,30.05,SW,230,5.0,6.9,58,0.00,CLR,,0.00,0.0,WeatherDisplay:10.37,2013-02-11 04:51:00,
2013-02-10 20:56:00,49.2,35.0,30.05,SW,226,4.2,7.0,58,0.00,CLR,,0.00,0.0,WeatherDisplay:10.37,2013-02-11 04:56:00,
2013-02-10 21:00:00,49.3,35.1,30.05,SW,230,6.0,8.0,58,0.00,CLR,CLR,0.00,0.0,WeatherDisplay:10.37,2013-02-11 05:00:00,
2013-02-10 21:05:00,49.6,35.4,30.05,WSW,245,6.2,8.1,58,0.00,CLR,,0.00,0.0,WeatherDisplay:10.37,2013-02-11 05:05:00,
2013-02-10 21:10:00,49.8,35.2,30.05,WSW,258,5.0,6.9,57,0.00,CLR,,0.00,0.0,WeatherDisplay:10.37,2013-02-11 05:10:00,
2013-02-10 21:15:00,50.0,35.4,30.05,WSW,241,4.4,5.8,57,0.00,CLR,,0.00,0.0,WeatherDisplay:10.37,2013-02-11 05:15:00,
2013-02-10 21:20:00,49.9,35.3,30.05,SW,232,3.9,6.9,57,0.00,CLR,,0.00,0.0,WeatherDisplay:10.37,2013-02-11 05:20:00,
2013-02-10 21:25:00,49.9,35.3,30.05,SW,235,3.9,4.6,57,0.00,CLR,,0.00,0.0,WeatherDisplay:10.37,2013-02-11 05:25:00,
2013-02-10 21:30:00,49.9,35.3,30.05,WSW,250,3.9,5.0,57,0.00,CLR,,0.00,0.0,WeatherDisplay:10.37,2013-02-11 05:30:00,
2013-02-10 21:35:00,49.8,35.2,30.05,WSW,254,3.1,5.0,57,0.00,CLR,,0.00,0.0,WeatherDisplay:10.37,2013-02-11 05:35:00,
2013-02-10 21:40:00,49.9,35.3,30.05,West,264,3.8,5.8,57,0.00,CLR,,0.00,0.0,WeatherDisplay:10.37,2013-02-11 05:40:00,
2013-02-10 21:45:00,49.9,35.3,30.05,West,264,3.8,4.6,57,0.00,CLR,,0.00,0.0,WeatherDisplay:10.37,2013-02-11 05:45:00,
2013-02-10 21:50:00,50.0,35.4,30.05,West,264,0.7,2.3,57,0.00,CLR,,0.00,0.0,WeatherDisplay:10.37,2013-02-11 05:50:00,
2013-02-10 21:55:00,49.9,35.3,30.05,West,269,1.7,2.3,57,0.00,CLR,,0.00,0.0,WeatherDisplay:10.37,2013-02-11 05:55:00,
2013-02-10 22:00:00,49.7,35.1,30.05,West,269,2.2,3.5,57,0.00,CLR,,0.00,0.0,WeatherDisplay:10.37,2013-02-11 06:00:00,
2013-02-10 22:05:00,49.4,35.2,30.05,West,270,1.4,2.3,58,0.00,CLR,,0.00,0.0,WeatherDisplay:10.37,2013-02-11 06:05:00,
2013-02-10 22:10:00,49.0,34.9,30.05,West,270,0.4,2.0,58,0.00,CLR,,0.00,0.0,WeatherDisplay:10.37,2013-02-11 06:10:00,
2013-02-10 22:15:00,48.8,35.1,30.05,West,269,2.0,3.5,59,0.00,CLR,,0.00,0.0,WeatherDisplay:10.37,2013-02-11 06:15:00,
2013-02-10 22:20:00,48.8,35.1,30.05,West,268,1.7,3.5,59,0.00,CLR,,0.00,0.0,WeatherDisplay:10.37,2013-02-11 06:20:00,
2013-02-10 22:25:00,48.8,35.1,30.05,West,259,3.4,4.6,59,0.00,CLR,,0.00,0.0,WeatherDisplay:10.37,2013-02-11 06:25:00,
2013-02-10 22:30:00,48.7,35.0,30.05,West,264,5.1,5.8,59,0.00,CLR,,0.00,0.0,WeatherDisplay:10.37,2013-02-11 06:30:00,
2013-02-10 22:35:00,48.8,34.7,30.05,West,268,4.3,6.9,58,0.00,CLR,,0.00,0.0,WeatherDisplay:10.37,2013-02-11 06:35:00,
2013-02-10 22:40:00,48.9,34.8,30.05,WSW,248,6.0,6.9,58,0.00,CLR,,0.00,0.0,WeatherDisplay:10.37,2013-02-11 06:40:00,
2013-02-10 22:45:00,49.1,33.6,30.05,West,259,4.6,6.0,55,0.00,CLR,,0.00,0.0,WeatherDisplay:10.37,2013-02-11 06:45:00,
2013-02-10 22:50:00,49.2,32.8,30.05,SW,231,6.1,8.1,53,0.00,CLR,,0.00,0.0,WeatherDisplay:10.37,2013-02-11 06:50:00,
2013-02-10 22:55:00,49.4,32.5,30.05,WSW,247,6.0,8.1,52,0.00,CLR,,0.00,0.0,WeatherDisplay:10.37,2013-02-11 06:55:00,
2013-02-10 23:00:00,49.4,33.0,30.05,SW,232,4.0,5.8,53,0.00,CLR,,0.00,0.0,WeatherDisplay:10.37,2013-02-11 07:00:00,
2013-02-10 23:05:00,49.4,32.0,30.05,WSW,240,5.9,8.1,51,0.00,CLR,,0.00,0.0,WeatherDisplay:10.37,2013-02-11 07:05:00,
2013-02-10 23:10:00,49.3,31.9,30.05,SW,228,4.4,6.9,51,0.00,CLR,,0.00,0.0,WeatherDisplay:10.37,2013-02-11 07:10:00,
2013-02-10 23:15:00,49.2,31.8,30.06,SW,230,4.8,6.9,51,0.00,CLR,,0.00,0.0,WeatherDisplay:10.37,2013-02-11 07:15:00,
2013-02-10 23:20:00,49.1,31.7,30.06,SW,232,4.2,5.0,51,0.00,CLR,,0.00,0.0,WeatherDisplay:10.37,2013-02-11 07:20:00,
2013-02-10 23:25:00,49.0,31.2,30.06,WSW,249,5.1,5.8,50,0.00,CLR,,0.00,0.0,WeatherDisplay:10.37,2013-02-11 07:25:00,
2013-02-10 23:30:00,48.9,30.6,30.06,West,259,4.6,5.8,49,0.00,CLR,,0.00,0.0,WeatherDisplay:10.37,2013-02-11 07:30:00,
2013-02-10 23:35:00,48.9,30.1,30.06,WSW,251,4.5,5.8,48,0.00,CLR,,0.00,0.0,WeatherDisplay:10.37,2013-02-11 07:35:00,
2013-02-10 23:40:00,49.0,29.6,30.06,WSW,249,4.4,5.8,47,0.00,CLR,,0.00,0.0,WeatherDisplay:10.37,2013-02-11 07:40:00,
2013-02-10 23:45:00,49.1,29.2,30.06,WSW,254,5.9,6.9,46,0.00,CLR,,0.00,0.0,WeatherDisplay:10.37,2013-02-11 07:45:00,
2013-02-10 23:50:00,49.4,29.5,30.06,West,261,6.1,8.1,46,0.00,CLR,,0.00,0.0,WeatherDisplay:10.37,2013-02-11 07:50:00,
2013-02-10 23:55:00,49.5,29.6,30.06,WSW,255,3.8,4.6,46,0.00,CLR,,0.00,0.0,WeatherDisplay:10.37,2013-02-11 07:55:00,